sensor_id;sensor_type;location;lat;lon;timestamp;P1;durP1;ratioP1;P2;durP2;ratioP2
76351;SDS011;65179;47.786;19.138;2023-02-01T00:01:17;6.90;;;2.10;;
76351;SDS011;65179;47.786;19.138;2023-02-01T00:03:42;5.32;;;1.70;;
76351;SDS011;65179;47.786;19.138;2023-02-01T00:06:08;7.47;;;2.00;;
76351;SDS011;65179;47.786;19.138;2023-02-01T00:08:34;6.80;;;2.00;;
76351;SDS011;65179;47.786;19.138;2023-02-01T00:11:04;9.03;;;2.77;;
76351;SDS011;65179;47.786;19.138;2023-02-01T00:13:35;4.70;;;1.92;;
76351;SDS011;65179;47.786;19.138;2023-02-01T00:16:22;4.62;;;2.00;;
76351;SDS011;65179;47.786;19.138;2023-02-01T00:18:50;6.95;;;2.00;;
76351;SDS011;65179;47.786;19.138;2023-02-01T00:21:18;7.25;;;2.00;;
76351;SDS011;65179;47.786;19.138;2023-02-01T00:23:47;6.60;;;2.00;;
76351;SDS011;65179;47.786;19.138;2023-02-01T00:26:16;7.25;;;2.30;;
76351;SDS011;65179;47.786;19.138;2023-02-01T00:28:44;6.43;;;2.40;;
76351;SDS011;65179;47.786;19.138;2023-02-01T00:31:10;7.18;;;2.40;;
76351;SDS011;65179;47.786;19.138;2023-02-01T00:33:35;7.70;;;2.57;;
76351;SDS011;65179;47.786;19.138;2023-02-01T00:36:02;5.30;;;2.10;;
76351;SDS011;65179;47.786;19.138;2023-02-01T00:38:31;5.12;;;1.70;;
76351;SDS011;65179;47.786;19.138;2023-02-01T00:41:04;8.68;;;2.25;;
76351;SDS011;65179;47.786;19.138;2023-02-01T00:43:32;5.65;;;2.35;;
76351;SDS011;65179;47.786;19.138;2023-02-01T00:45:58;6.10;;;2.17;;
76351;SDS011;65179;47.786;19.138;2023-02-01T00:48:24;5.28;;;2.10;;
76351;SDS011;65179;47.786;19.138;2023-02-01T00:50:51;6.32;;;2.50;;
76351;SDS011;65179;47.786;19.138;2023-02-01T00:53:16;5.27;;;2.23;;
76351;SDS011;65179;47.786;19.138;2023-02-01T00:55:45;6.53;;;2.60;;
76351;SDS011;65179;47.786;19.138;2023-02-01T00:58:14;6.47;;;2.70;;
76351;SDS011;65179;47.786;19.138;2023-02-01T01:00:40;8.65;;;2.65;;
76351;SDS011;65179;47.786;19.138;2023-02-01T01:03:05;7.95;;;2.20;;
76351;SDS011;65179;47.786;19.138;2023-02-01T01:05:47;7.47;;;2.10;;
76351;SDS011;65179;47.786;19.138;2023-02-01T01:08:14;6.12;;;2.40;;
76351;SDS011;65179;47.786;19.138;2023-02-01T01:10:41;6.07;;;2.20;;
76351;SDS011;65179;47.786;19.138;2023-02-01T01:13:07;5.68;;;2.20;;
76351;SDS011;65179;47.786;19.138;2023-02-01T01:15:37;7.85;;;2.30;;
76351;SDS011;65179;47.786;19.138;2023-02-01T01:18:04;6.82;;;2.22;;
76351;SDS011;65179;47.786;19.138;2023-02-01T01:20:29;6.70;;;2.30;;
76351;SDS011;65179;47.786;19.138;2023-02-01T01:22:55;4.53;;;2.00;;
76351;SDS011;65179;47.786;19.138;2023-02-01T01:25:21;5.12;;;2.40;;
76351;SDS011;65179;47.786;19.138;2023-02-01T01:27:46;7.93;;;2.20;;
76351;SDS011;65179;47.786;19.138;2023-02-01T01:30:12;4.78;;;2.15;;
76351;SDS011;65179;47.786;19.138;2023-02-01T01:32:38;5.47;;;2.17;;
76351;SDS011;65179;47.786;19.138;2023-02-01T01:35:04;6.03;;;2.37;;
76351;SDS011;65179;47.786;19.138;2023-02-01T01:37:30;5.50;;;2.60;;
76351;SDS011;65179;47.786;19.138;2023-02-01T01:39:56;6.12;;;2.35;;
76351;SDS011;65179;47.786;19.138;2023-02-01T01:42:22;5.20;;;2.30;;
76351;SDS011;65179;47.786;19.138;2023-02-01T01:44:58;9.43;;;2.60;;
76351;SDS011;65179;47.786;19.138;2023-02-01T01:48:01;4.78;;;2.30;;
76351;SDS011;65179;47.786;19.138;2023-02-01T01:50:33;7.37;;;2.60;;
76351;SDS011;65179;47.786;19.138;2023-02-01T01:53:04;6.20;;;2.45;;
76351;SDS011;65179;47.786;19.138;2023-02-01T01:55:35;8.48;;;2.35;;
76351;SDS011;65179;47.786;19.138;2023-02-01T01:58:04;6.43;;;2.73;;
76351;SDS011;65179;47.786;19.138;2023-02-01T02:00:33;7.68;;;2.47;;
76351;SDS011;65179;47.786;19.138;2023-02-01T02:03:45;6.37;;;2.47;;
76351;SDS011;65179;47.786;19.138;2023-02-01T02:06:00;6.37;;;2.22;;
76351;SDS011;65179;47.786;19.138;2023-02-01T02:08:28;7.00;;;2.60;;
76351;SDS011;65179;47.786;19.138;2023-02-01T02:10:54;4.57;;;2.17;;
76351;SDS011;65179;47.786;19.138;2023-02-01T02:13:48;5.10;;;2.58;;
76351;SDS011;65179;47.786;19.138;2023-02-01T02:44:09;5.68;;;2.20;;
76351;SDS011;65179;47.786;19.138;2023-02-01T02:47:05;6.25;;;2.37;;
76351;SDS011;65179;47.786;19.138;2023-02-01T02:50:02;5.83;;;1.97;;
76351;SDS011;65179;47.786;19.138;2023-02-01T02:53:05;4.70;;;2.00;;
76351;SDS011;65179;47.786;19.138;2023-02-01T02:55:57;4.43;;;2.10;;
76351;SDS011;65179;47.786;19.138;2023-02-01T02:58:43;3.90;;;1.70;;
76351;SDS011;65179;47.786;19.138;2023-02-01T03:01:29;6.90;;;2.33;;
76351;SDS011;65179;47.786;19.138;2023-02-01T03:04:14;4.23;;;1.90;;
76351;SDS011;65179;47.786;19.138;2023-02-01T03:06:43;7.45;;;2.33;;
76351;SDS011;65179;47.786;19.138;2023-02-01T03:09:13;4.80;;;2.20;;
76351;SDS011;65179;47.786;19.138;2023-02-01T03:11:46;5.00;;;2.22;;
76351;SDS011;65179;47.786;19.138;2023-02-01T03:14:35;6.37;;;1.90;;
76351;SDS011;65179;47.786;19.138;2023-02-01T03:17:05;4.87;;;2.10;;
76351;SDS011;65179;47.786;19.138;2023-02-01T03:19:40;5.12;;;1.92;;
76351;SDS011;65179;47.786;19.138;2023-02-01T03:22:14;5.47;;;2.42;;
76351;SDS011;65179;47.786;19.138;2023-02-01T03:24:46;4.32;;;2.00;;
76351;SDS011;65179;47.786;19.138;2023-02-01T03:29:49;6.03;;;2.23;;
76351;SDS011;65179;47.786;19.138;2023-02-01T03:32:31;6.10;;;2.37;;
76351;SDS011;65179;47.786;19.138;2023-02-01T03:35:17;5.30;;;2.13;;
76351;SDS011;65179;47.786;19.138;2023-02-01T03:37:48;5.80;;;2.15;;
76351;SDS011;65179;47.786;19.138;2023-02-01T03:40:15;5.25;;;2.37;;
76351;SDS011;65179;47.786;19.138;2023-02-01T03:42:45;6.53;;;2.33;;
76351;SDS011;65179;47.786;19.138;2023-02-01T03:47:49;6.70;;;2.80;;
76351;SDS011;65179;47.786;19.138;2023-02-01T03:50:19;5.20;;;2.30;;
76351;SDS011;65179;47.786;19.138;2023-02-01T03:52:50;6.55;;;2.35;;
76351;SDS011;65179;47.786;19.138;2023-02-01T03:55:21;5.87;;;2.22;;
76351;SDS011;65179;47.786;19.138;2023-02-01T04:00:38;4.30;;;1.60;;
76351;SDS011;65179;47.786;19.138;2023-02-01T04:03:04;4.68;;;1.90;;
76351;SDS011;65179;47.786;19.138;2023-02-01T04:05:31;5.40;;;2.33;;
76351;SDS011;65179;47.786;19.138;2023-02-01T04:07:57;4.72;;;2.30;;
76351;SDS011;65179;47.786;19.138;2023-02-01T04:10:23;4.57;;;2.20;;
76351;SDS011;65179;47.786;19.138;2023-02-01T04:12:48;3.97;;;2.00;;
76351;SDS011;65179;47.786;19.138;2023-02-01T04:15:14;5.17;;;2.17;;
76351;SDS011;65179;47.786;19.138;2023-02-01T04:17:40;4.73;;;2.20;;
76351;SDS011;65179;47.786;19.138;2023-02-01T04:20:05;4.32;;;2.10;;
76351;SDS011;65179;47.786;19.138;2023-02-01T04:22:31;5.03;;;2.10;;
76351;SDS011;65179;47.786;19.138;2023-02-01T04:24:56;4.50;;;2.03;;
76351;SDS011;65179;47.786;19.138;2023-02-01T04:27:22;5.37;;;2.13;;
76351;SDS011;65179;47.786;19.138;2023-02-01T04:29:47;5.27;;;1.77;;
76351;SDS011;65179;47.786;19.138;2023-02-01T04:32:15;5.32;;;1.80;;
76351;SDS011;65179;47.786;19.138;2023-02-01T04:34:41;4.97;;;2.12;;
76351;SDS011;65179;47.786;19.138;2023-02-01T04:37:06;4.87;;;2.10;;
76351;SDS011;65179;47.786;19.138;2023-02-01T04:39:32;5.53;;;2.65;;
76351;SDS011;65179;47.786;19.138;2023-02-01T04:41:58;5.72;;;2.62;;
76351;SDS011;65179;47.786;19.138;2023-02-01T04:44:23;5.07;;;2.07;;
76351;SDS011;65179;47.786;19.138;2023-02-01T04:46:49;5.15;;;2.40;;
76351;SDS011;65179;47.786;19.138;2023-02-01T04:49:15;4.77;;;2.03;;
76351;SDS011;65179;47.786;19.138;2023-02-01T04:51:40;6.62;;;2.58;;
76351;SDS011;65179;47.786;19.138;2023-02-01T04:54:07;6.05;;;2.85;;
76351;SDS011;65179;47.786;19.138;2023-02-01T04:56:33;6.03;;;2.50;;
76351;SDS011;65179;47.786;19.138;2023-02-01T04:59:00;5.60;;;2.12;;
76351;SDS011;65179;47.786;19.138;2023-02-01T05:01:27;5.47;;;2.30;;
76351;SDS011;65179;47.786;19.138;2023-02-01T05:03:53;6.53;;;2.05;;
76351;SDS011;65179;47.786;19.138;2023-02-01T05:06:18;4.40;;;2.00;;
76351;SDS011;65179;47.786;19.138;2023-02-01T05:08:44;8.90;;;2.30;;
76351;SDS011;65179;47.786;19.138;2023-02-01T05:11:09;7.57;;;2.60;;
76351;SDS011;65179;47.786;19.138;2023-02-01T05:13:55;6.30;;;2.40;;
76351;SDS011;65179;47.786;19.138;2023-02-01T05:16:20;4.87;;;2.12;;
76351;SDS011;65179;47.786;19.138;2023-02-01T05:18:46;5.40;;;2.07;;
76351;SDS011;65179;47.786;19.138;2023-02-01T05:21:11;5.97;;;2.43;;
76351;SDS011;65179;47.786;19.138;2023-02-01T05:23:37;5.37;;;2.30;;
76351;SDS011;65179;47.786;19.138;2023-02-01T05:26:22;4.28;;;1.75;;
76351;SDS011;65179;47.786;19.138;2023-02-01T05:28:48;4.20;;;1.77;;
76351;SDS011;65179;47.786;19.138;2023-02-01T05:31:14;6.32;;;1.90;;
76351;SDS011;65179;47.786;19.138;2023-02-01T05:33:39;5.00;;;2.30;;
76351;SDS011;65179;47.786;19.138;2023-02-01T05:36:05;6.77;;;2.13;;
76351;SDS011;65179;47.786;19.138;2023-02-01T05:38:31;4.40;;;2.03;;
76351;SDS011;65179;47.786;19.138;2023-02-01T05:40:56;5.43;;;2.77;;
76351;SDS011;65179;47.786;19.138;2023-02-01T05:43:22;5.35;;;1.98;;
76351;SDS011;65179;47.786;19.138;2023-02-01T05:45:47;6.47;;;1.95;;
76351;SDS011;65179;47.786;19.138;2023-02-01T05:48:13;4.87;;;1.90;;
76351;SDS011;65179;47.786;19.138;2023-02-01T05:50:38;5.15;;;2.17;;
76351;SDS011;65179;47.786;19.138;2023-02-01T05:53:04;3.70;;;1.70;;
76351;SDS011;65179;47.786;19.138;2023-02-01T05:55:30;4.70;;;1.90;;
76351;SDS011;65179;47.786;19.138;2023-02-01T05:57:55;6.12;;;2.12;;
76351;SDS011;65179;47.786;19.138;2023-02-01T06:00:21;4.60;;;1.93;;
76351;SDS011;65179;47.786;19.138;2023-02-01T06:02:47;4.90;;;2.10;;
76351;SDS011;65179;47.786;19.138;2023-02-01T06:05:12;4.33;;;1.80;;
76351;SDS011;65179;47.786;19.138;2023-02-01T06:07:38;5.00;;;2.17;;
76351;SDS011;65179;47.786;19.138;2023-02-01T06:10:04;4.37;;;2.03;;
76351;SDS011;65179;47.786;19.138;2023-02-01T06:12:30;4.65;;;1.87;;
76351;SDS011;65179;47.786;19.138;2023-02-01T06:14:55;4.47;;;2.00;;
76351;SDS011;65179;47.786;19.138;2023-02-01T06:17:21;6.57;;;1.97;;
76351;SDS011;65179;47.786;19.138;2023-02-01T06:19:47;4.55;;;1.80;;
76351;SDS011;65179;47.786;19.138;2023-02-01T06:22:13;4.22;;;1.67;;
76351;SDS011;65179;47.786;19.138;2023-02-01T06:24:39;5.35;;;1.67;;
76351;SDS011;65179;47.786;19.138;2023-02-01T06:27:06;5.30;;;1.90;;
76351;SDS011;65179;47.786;19.138;2023-02-01T06:29:32;4.10;;;1.58;;
76351;SDS011;65179;47.786;19.138;2023-02-01T06:31:58;4.35;;;1.95;;
76351;SDS011;65179;47.786;19.138;2023-02-01T06:34:24;5.18;;;2.10;;
76351;SDS011;65179;47.786;19.138;2023-02-01T06:36:49;4.33;;;1.73;;
76351;SDS011;65179;47.786;19.138;2023-02-01T06:39:15;4.55;;;1.95;;
76351;SDS011;65179;47.786;19.138;2023-02-01T06:41:41;3.80;;;1.77;;
76351;SDS011;65179;47.786;19.138;2023-02-01T06:44:08;5.78;;;2.20;;
76351;SDS011;65179;47.786;19.138;2023-02-01T06:46:33;4.28;;;1.90;;
76351;SDS011;65179;47.786;19.138;2023-02-01T06:48:59;4.30;;;2.00;;
76351;SDS011;65179;47.786;19.138;2023-02-01T06:51:25;4.97;;;2.20;;
76351;SDS011;65179;47.786;19.138;2023-02-01T06:53:52;4.75;;;2.20;;
76351;SDS011;65179;47.786;19.138;2023-02-01T06:56:18;7.67;;;2.50;;
76351;SDS011;65179;47.786;19.138;2023-02-01T06:58:44;6.18;;;2.45;;
76351;SDS011;65179;47.786;19.138;2023-02-01T07:01:10;7.43;;;2.17;;
76351;SDS011;65179;47.786;19.138;2023-02-01T07:03:36;6.35;;;2.00;;
76351;SDS011;65179;47.786;19.138;2023-02-01T07:06:01;4.45;;;2.05;;
76351;SDS011;65179;47.786;19.138;2023-02-01T07:08:27;5.28;;;2.42;;
76351;SDS011;65179;47.786;19.138;2023-02-01T07:10:54;7.62;;;2.53;;
76351;SDS011;65179;47.786;19.138;2023-02-01T07:13:19;5.27;;;2.30;;
76351;SDS011;65179;47.786;19.138;2023-02-01T07:15:45;7.60;;;2.47;;
76351;SDS011;65179;47.786;19.138;2023-02-01T07:18:14;4.85;;;2.15;;
76351;SDS011;65179;47.786;19.138;2023-02-01T07:20:40;5.15;;;2.30;;
76351;SDS011;65179;47.786;19.138;2023-02-01T07:23:08;5.20;;;2.50;;
76351;SDS011;65179;47.786;19.138;2023-02-01T07:25:35;6.12;;;2.67;;
76351;SDS011;65179;47.786;19.138;2023-02-01T07:28:00;6.37;;;2.70;;
76351;SDS011;65179;47.786;19.138;2023-02-01T07:30:26;6.50;;;2.67;;
76351;SDS011;65179;47.786;19.138;2023-02-01T07:32:51;6.73;;;2.67;;
76351;SDS011;65179;47.786;19.138;2023-02-01T07:35:17;5.97;;;2.50;;
76351;SDS011;65179;47.786;19.138;2023-02-01T07:37:42;6.23;;;2.63;;
76351;SDS011;65179;47.786;19.138;2023-02-01T07:40:08;6.97;;;2.60;;
76351;SDS011;65179;47.786;19.138;2023-02-01T07:42:34;5.68;;;2.58;;
76351;SDS011;65179;47.786;19.138;2023-02-01T07:45:00;7.50;;;2.80;;
76351;SDS011;65179;47.786;19.138;2023-02-01T07:47:27;7.50;;;2.78;;
76351;SDS011;65179;47.786;19.138;2023-02-01T07:49:52;6.80;;;2.70;;
76351;SDS011;65179;47.786;19.138;2023-02-01T07:52:18;6.40;;;2.25;;
76351;SDS011;65179;47.786;19.138;2023-02-01T07:54:43;4.77;;;2.27;;
76351;SDS011;65179;47.786;19.138;2023-02-01T07:57:09;5.30;;;2.20;;
76351;SDS011;65179;47.786;19.138;2023-02-01T07:59:36;4.55;;;2.00;;
76351;SDS011;65179;47.786;19.138;2023-02-01T08:02:22;4.50;;;1.98;;
76351;SDS011;65179;47.786;19.138;2023-02-01T08:04:48;4.40;;;1.97;;
76351;SDS011;65179;47.786;19.138;2023-02-01T08:07:14;5.85;;;2.30;;
76351;SDS011;65179;47.786;19.138;2023-02-01T08:09:39;4.80;;;2.10;;
76351;SDS011;65179;47.786;19.138;2023-02-01T08:12:05;5.18;;;2.42;;
76351;SDS011;65179;47.786;19.138;2023-02-01T08:14:30;5.70;;;2.27;;
76351;SDS011;65179;47.786;19.138;2023-02-01T08:16:56;4.27;;;1.67;;
76351;SDS011;65179;47.786;19.138;2023-02-01T08:19:21;5.62;;;2.47;;
76351;SDS011;65179;47.786;19.138;2023-02-01T08:21:47;6.30;;;2.50;;
76351;SDS011;65179;47.786;19.138;2023-02-01T08:24:13;5.97;;;2.37;;
76351;SDS011;65179;47.786;19.138;2023-02-01T08:26:39;7.30;;;2.33;;
76351;SDS011;65179;47.786;19.138;2023-02-01T08:29:06;4.35;;;1.60;;
76351;SDS011;65179;47.786;19.138;2023-02-01T08:31:33;4.62;;;1.80;;
76351;SDS011;65179;47.786;19.138;2023-02-01T08:34:02;5.05;;;1.70;;
76351;SDS011;65179;47.786;19.138;2023-02-01T08:36:33;3.62;;;1.45;;
76351;SDS011;65179;47.786;19.138;2023-02-01T08:38:59;4.93;;;1.85;;
76351;SDS011;65179;47.786;19.138;2023-02-01T08:41:26;6.00;;;2.37;;
76351;SDS011;65179;47.786;19.138;2023-02-01T08:43:54;4.90;;;2.12;;
76351;SDS011;65179;47.786;19.138;2023-02-01T08:46:20;3.67;;;1.62;;
76351;SDS011;65179;47.786;19.138;2023-02-01T08:48:47;4.05;;;1.95;;
76351;SDS011;65179;47.786;19.138;2023-02-01T08:51:13;4.00;;;1.50;;
76351;SDS011;65179;47.786;19.138;2023-02-01T08:53:41;4.60;;;1.83;;
76351;SDS011;65179;47.786;19.138;2023-02-01T08:56:08;6.20;;;2.10;;
76351;SDS011;65179;47.786;19.138;2023-02-01T08:58:35;3.97;;;1.80;;
76351;SDS011;65179;47.786;19.138;2023-02-01T09:01:04;3.97;;;1.48;;
76351;SDS011;65179;47.786;19.138;2023-02-01T09:03:31;3.72;;;1.52;;
76351;SDS011;65179;47.786;19.138;2023-02-01T09:06:10;5.97;;;1.60;;
76351;SDS011;65179;47.786;19.138;2023-02-01T09:08:37;4.78;;;1.55;;
76351;SDS011;65179;47.786;19.138;2023-02-01T09:11:06;4.03;;;1.42;;
76351;SDS011;65179;47.786;19.138;2023-02-01T09:13:33;4.85;;;1.73;;
76351;SDS011;65179;47.786;19.138;2023-02-01T09:15:59;3.40;;;1.33;;
76351;SDS011;65179;47.786;19.138;2023-02-01T09:18:25;6.12;;;2.00;;
76351;SDS011;65179;47.786;19.138;2023-02-01T09:20:51;4.68;;;1.70;;
76351;SDS011;65179;47.786;19.138;2023-02-01T09:23:17;4.97;;;1.80;;
76351;SDS011;65179;47.786;19.138;2023-02-01T09:25:45;6.57;;;2.17;;
76351;SDS011;65179;47.786;19.138;2023-02-01T09:28:10;7.30;;;2.30;;
76351;SDS011;65179;47.786;19.138;2023-02-01T09:30:36;7.20;;;2.60;;
76351;SDS011;65179;47.786;19.138;2023-02-01T09:33:03;6.85;;;3.03;;
76351;SDS011;65179;47.786;19.138;2023-02-01T09:35:29;6.63;;;1.70;;
76351;SDS011;65179;47.786;19.138;2023-02-01T09:37:54;5.10;;;2.05;;
76351;SDS011;65179;47.786;19.138;2023-02-01T09:40:20;6.77;;;2.37;;
76351;SDS011;65179;47.786;19.138;2023-02-01T09:42:51;5.32;;;1.65;;
76351;SDS011;65179;47.786;19.138;2023-02-01T09:48:46;7.05;;;2.25;;
76351;SDS011;65179;47.786;19.138;2023-02-01T09:51:16;5.60;;;2.60;;
76351;SDS011;65179;47.786;19.138;2023-02-01T09:53:47;5.07;;;2.60;;
76351;SDS011;65179;47.786;19.138;2023-02-01T09:56:24;7.15;;;2.85;;
76351;SDS011;65179;47.786;19.138;2023-02-01T10:01:47;4.93;;;2.05;;
76351;SDS011;65179;47.786;19.138;2023-02-01T10:04:13;5.53;;;2.13;;
76351;SDS011;65179;47.786;19.138;2023-02-01T10:26:30;5.22;;;1.98;;
76351;SDS011;65179;47.786;19.138;2023-02-01T10:29:02;4.30;;;1.80;;
76351;SDS011;65179;47.786;19.138;2023-02-01T10:31:30;5.97;;;2.33;;
76351;SDS011;65179;47.786;19.138;2023-02-01T10:34:00;6.95;;;2.47;;
76351;SDS011;65179;47.786;19.138;2023-02-01T10:36:35;5.22;;;2.10;;
76351;SDS011;65179;47.786;19.138;2023-02-01T10:39:05;8.13;;;1.90;;
76351;SDS011;65179;47.786;19.138;2023-02-01T10:41:35;5.85;;;1.95;;
76351;SDS011;65179;47.786;19.138;2023-02-01T10:44:04;7.55;;;1.80;;
76351;SDS011;65179;47.786;19.138;2023-02-01T10:46:51;4.40;;;1.80;;
76351;SDS011;65179;47.786;19.138;2023-02-01T10:49:18;3.87;;;1.50;;
76351;SDS011;65179;47.786;19.138;2023-02-01T10:57:58;5.05;;;1.62;;
76351;SDS011;65179;47.786;19.138;2023-02-01T11:00:25;7.62;;;1.87;;
76351;SDS011;65179;47.786;19.138;2023-02-01T11:02:51;5.30;;;1.95;;
76351;SDS011;65179;47.786;19.138;2023-02-01T11:05:18;5.57;;;1.90;;
76351;SDS011;65179;47.786;19.138;2023-02-01T11:07:50;4.28;;;1.55;;
76351;SDS011;65179;47.786;19.138;2023-02-01T11:10:36;4.35;;;1.35;;
76351;SDS011;65179;47.786;19.138;2023-02-01T11:13:04;4.50;;;1.52;;
76351;SDS011;65179;47.786;19.138;2023-02-01T11:15:30;4.40;;;1.50;;
76351;SDS011;65179;47.786;19.138;2023-02-01T11:17:55;4.20;;;1.40;;
76351;SDS011;65179;47.786;19.138;2023-02-01T11:20:39;4.53;;;1.58;;
76351;SDS011;65179;47.786;19.138;2023-02-01T11:23:13;4.30;;;1.42;;
76351;SDS011;65179;47.786;19.138;2023-02-01T11:25:46;5.97;;;1.70;;
76351;SDS011;65179;47.786;19.138;2023-02-01T11:28:14;7.22;;;1.70;;
76351;SDS011;65179;47.786;19.138;2023-02-01T11:30:41;4.47;;;1.87;;
76351;SDS011;65179;47.786;19.138;2023-02-01T11:33:13;5.25;;;1.87;;
76351;SDS011;65179;47.786;19.138;2023-02-01T11:35:45;5.10;;;1.62;;
76351;SDS011;65179;47.786;19.138;2023-02-01T11:38:20;5.27;;;1.80;;
76351;SDS011;65179;47.786;19.138;2023-02-01T11:40:50;3.87;;;1.55;;
76351;SDS011;65179;47.786;19.138;2023-02-01T11:43:27;5.93;;;1.80;;
76351;SDS011;65179;47.786;19.138;2023-02-01T11:45:58;5.07;;;1.70;;
76351;SDS011;65179;47.786;19.138;2023-02-01T11:48:25;5.25;;;1.90;;
76351;SDS011;65179;47.786;19.138;2023-02-01T11:51:07;6.53;;;2.33;;
76351;SDS011;65179;47.786;19.138;2023-02-01T12:06:56;7.37;;;2.65;;
76351;SDS011;65179;47.786;19.138;2023-02-01T12:17:28;5.40;;;2.47;;
76351;SDS011;65179;47.786;19.138;2023-02-01T12:38:59;8.23;;;3.47;;
76351;SDS011;65179;47.786;19.138;2023-02-01T12:44:59;11.25;;;6.95;;
76351;SDS011;65179;47.786;19.138;2023-02-01T12:47:38;12.25;;;7.40;;
76351;SDS011;65179;47.786;19.138;2023-02-01T12:53:02;8.47;;;4.73;;
76351;SDS011;65179;47.786;19.138;2023-02-01T12:56:00;8.38;;;4.28;;
76351;SDS011;65179;47.786;19.138;2023-02-01T12:58:32;8.18;;;4.07;;
76351;SDS011;65179;47.786;19.138;2023-02-01T13:01:05;10.45;;;4.15;;
76351;SDS011;65179;47.786;19.138;2023-02-01T13:03:54;6.10;;;3.25;;
76351;SDS011;65179;47.786;19.138;2023-02-01T13:06:34;10.20;;;3.67;;
76351;SDS011;65179;47.786;19.138;2023-02-01T13:09:17;7.80;;;3.70;;
76351;SDS011;65179;47.786;19.138;2023-02-01T13:11:57;8.40;;;4.70;;
76351;SDS011;65179;47.786;19.138;2023-02-01T13:14:32;8.57;;;3.60;;
76351;SDS011;65179;47.786;19.138;2023-02-01T13:17:09;7.15;;;3.50;;
76351;SDS011;65179;47.786;19.138;2023-02-01T13:22:17;7.07;;;2.90;;
76351;SDS011;65179;47.786;19.138;2023-02-01T13:24:53;7.78;;;3.72;;
76351;SDS011;65179;47.786;19.138;2023-02-01T13:27:22;5.00;;;2.45;;
76351;SDS011;65179;47.786;19.138;2023-02-01T13:30:06;3.42;;;1.35;;
76351;SDS011;65179;47.786;19.138;2023-02-01T13:40:30;4.22;;;1.52;;
76351;SDS011;65179;47.786;19.138;2023-02-01T13:43:05;5.12;;;1.90;;
76351;SDS011;65179;47.786;19.138;2023-02-01T13:45:37;5.47;;;1.50;;
76351;SDS011;65179;47.786;19.138;2023-02-01T13:48:23;4.47;;;1.60;;
76351;SDS011;65179;47.786;19.138;2023-02-01T13:50:55;6.87;;;2.17;;
76351;SDS011;65179;47.786;19.138;2023-02-01T13:53:32;5.35;;;2.00;;
76351;SDS011;65179;47.786;19.138;2023-02-01T13:56:38;3.45;;;1.00;;
76351;SDS011;65179;47.786;19.138;2023-02-01T13:59:35;3.47;;;0.90;;
76351;SDS011;65179;47.786;19.138;2023-02-01T14:05:01;2.90;;;0.60;;
76351;SDS011;65179;47.786;19.138;2023-02-01T14:07:27;3.00;;;0.80;;
76351;SDS011;65179;47.786;19.138;2023-02-01T14:09:53;2.62;;;0.52;;
76351;SDS011;65179;47.786;19.138;2023-02-01T14:17:51;3.80;;;1.00;;
76351;SDS011;65179;47.786;19.138;2023-02-01T14:23:09;3.28;;;0.90;;
76351;SDS011;65179;47.786;19.138;2023-02-01T14:25:39;3.15;;;0.60;;
76351;SDS011;65179;47.786;19.138;2023-02-01T14:28:11;4.43;;;0.70;;
76351;SDS011;65179;47.786;19.138;2023-02-01T14:30:49;3.05;;;0.95;;
76351;SDS011;65179;47.786;19.138;2023-02-01T14:33:33;5.33;;;1.40;;
76351;SDS011;65179;47.786;19.138;2023-02-01T14:36:09;5.03;;;2.20;;
76351;SDS011;65179;47.786;19.138;2023-02-01T14:38:39;6.35;;;2.95;;
76351;SDS011;65179;47.786;19.138;2023-02-01T14:41:25;8.55;;;3.37;;
76351;SDS011;65179;47.786;19.138;2023-02-01T14:49:52;3.37;;;1.40;;
76351;SDS011;65179;47.786;19.138;2023-02-01T14:52:34;5.37;;;1.95;;
76351;SDS011;65179;47.786;19.138;2023-02-01T14:55:09;5.55;;;1.33;;
76351;SDS011;65179;47.786;19.138;2023-02-01T14:57:39;3.78;;;1.42;;
76351;SDS011;65179;47.786;19.138;2023-02-01T15:00:28;5.10;;;1.30;;
76351;SDS011;65179;47.786;19.138;2023-02-01T15:02:54;5.57;;;1.45;;
76351;SDS011;65179;47.786;19.138;2023-02-01T15:05:44;6.43;;;1.42;;
76351;SDS011;65179;47.786;19.138;2023-02-01T15:08:19;3.70;;;1.33;;
76351;SDS011;65179;47.786;19.138;2023-02-01T15:10:49;3.78;;;1.08;;
76351;SDS011;65179;47.786;19.138;2023-02-01T15:13:27;4.53;;;1.40;;
76351;SDS011;65179;47.786;19.138;2023-02-01T15:16:00;5.70;;;1.42;;
76351;SDS011;65179;47.786;19.138;2023-02-01T15:18:28;3.70;;;1.30;;
76351;SDS011;65179;47.786;19.138;2023-02-01T15:20:58;5.60;;;1.60;;
76351;SDS011;65179;47.786;19.138;2023-02-01T15:23:25;3.92;;;1.23;;
76351;SDS011;65179;47.786;19.138;2023-02-01T15:25:51;5.12;;;1.25;;
76351;SDS011;65179;47.786;19.138;2023-02-01T15:28:17;4.60;;;1.50;;
76351;SDS011;65179;47.786;19.138;2023-02-01T15:30:53;4.97;;;1.30;;
76351;SDS011;65179;47.786;19.138;2023-02-01T15:33:30;5.90;;;1.87;;
76351;SDS011;65179;47.786;19.138;2023-02-01T15:38:43;3.90;;;1.60;;
76351;SDS011;65179;47.786;19.138;2023-02-01T15:41:16;4.90;;;1.60;;
76351;SDS011;65179;47.786;19.138;2023-02-01T15:43:47;6.50;;;1.60;;
76351;SDS011;65179;47.786;19.138;2023-02-01T15:46:15;5.12;;;1.55;;
76351;SDS011;65179;47.786;19.138;2023-02-01T15:48:51;5.65;;;1.80;;
76351;SDS011;65179;47.786;19.138;2023-02-01T15:51:20;5.23;;;1.80;;
76351;SDS011;65179;47.786;19.138;2023-02-01T15:56:21;6.53;;;1.50;;
76351;SDS011;65179;47.786;19.138;2023-02-01T15:58:52;5.37;;;1.23;;
76351;SDS011;65179;47.786;19.138;2023-02-01T16:01:21;3.55;;;1.40;;
76351;SDS011;65179;47.786;19.138;2023-02-01T16:03:47;4.25;;;1.50;;
76351;SDS011;65179;47.786;19.138;2023-02-01T16:08:53;5.00;;;2.00;;
76351;SDS011;65179;47.786;19.138;2023-02-01T16:11:22;5.47;;;2.03;;
76351;SDS011;65179;47.786;19.138;2023-02-01T16:13:50;5.57;;;2.17;;
76351;SDS011;65179;47.786;19.138;2023-02-01T16:16:16;4.73;;;1.83;;
76351;SDS011;65179;47.786;19.138;2023-02-01T16:18:42;7.05;;;2.00;;
76351;SDS011;65179;47.786;19.138;2023-02-01T16:21:18;6.17;;;1.93;;
76351;SDS011;65179;47.786;19.138;2023-02-01T16:23:47;7.72;;;2.08;;
76351;SDS011;65179;47.786;19.138;2023-02-01T16:26:13;6.30;;;2.65;;
76351;SDS011;65179;47.786;19.138;2023-02-01T16:28:39;9.43;;;2.07;;
76351;SDS011;65179;47.786;19.138;2023-02-01T16:31:05;5.90;;;2.37;;
76351;SDS011;65179;47.786;19.138;2023-02-01T16:33:33;5.97;;;2.50;;
76351;SDS011;65179;47.786;19.138;2023-02-01T16:35:59;5.17;;;2.13;;
76351;SDS011;65179;47.786;19.138;2023-02-01T16:38:27;7.72;;;2.25;;
76351;SDS011;65179;47.786;19.138;2023-02-01T16:40:52;6.37;;;2.40;;
76351;SDS011;65179;47.786;19.138;2023-02-01T16:43:19;4.32;;;2.10;;
76351;SDS011;65179;47.786;19.138;2023-02-01T16:45:47;7.55;;;2.08;;
76351;SDS011;65179;47.786;19.138;2023-02-01T16:50:53;6.57;;;2.05;;
76351;SDS011;65179;47.786;19.138;2023-02-01T16:53:21;5.40;;;1.90;;
76351;SDS011;65179;47.786;19.138;2023-02-01T16:55:48;6.57;;;2.03;;
76351;SDS011;65179;47.786;19.138;2023-02-01T16:58:15;6.90;;;2.08;;
76351;SDS011;65179;47.786;19.138;2023-02-01T17:00:42;5.90;;;1.97;;
76351;SDS011;65179;47.786;19.138;2023-02-01T17:03:09;6.25;;;2.15;;
76351;SDS011;65179;47.786;19.138;2023-02-01T17:05:36;5.93;;;2.08;;
76351;SDS011;65179;47.786;19.138;2023-02-01T17:08:02;7.03;;;1.95;;
76351;SDS011;65179;47.786;19.138;2023-02-01T17:10:31;6.37;;;2.05;;
76351;SDS011;65179;47.786;19.138;2023-02-01T17:12:57;5.57;;;2.10;;
76351;SDS011;65179;47.786;19.138;2023-02-01T17:15:23;8.23;;;3.17;;
76351;SDS011;65179;47.786;19.138;2023-02-01T17:17:51;9.63;;;2.80;;
76351;SDS011;65179;47.786;19.138;2023-02-01T17:20:20;6.57;;;2.50;;
76351;SDS011;65179;47.786;19.138;2023-02-01T17:22:49;6.30;;;2.37;;